createdAt,value
2023-03-19T00:02:21.429Z,100362.72
2023-03-19T00:04:49.427Z,100362.72
2023-03-19T00:07:18.009Z,100359.69
2023-03-19T00:09:48.170Z,100360.91
2023-03-19T00:12:17.248Z,100365.28
2023-03-19T00:14:44.937Z,100369.19
2023-03-19T00:17:12.566Z,100366.88
2023-03-19T00:19:40.846Z,100369.06
2023-03-19T00:22:08.613Z,100377.28
2023-03-19T00:24:36.336Z,100376.66
2023-03-19T00:27:05.532Z,100374.19
2023-03-19T00:29:34.584Z,100357.63
2023-03-19T00:32:02.332Z,100371.19
2023-03-19T00:34:30.015Z,100373.66
2023-03-19T00:36:57.632Z,100378.53
2023-03-19T00:39:25.261Z,100379.25
2023-03-19T00:41:53.551Z,100380.88
2023-03-19T00:44:21.415Z,100384.28
2023-03-19T00:46:50.660Z,100376.41
2023-03-19T00:49:18.280Z,100380.63
2023-03-19T00:51:45.879Z,100384.56
2023-03-19T00:54:16.851Z,100380.88
2023-03-19T00:56:44.505Z,100393.19
2023-03-19T00:59:12.216Z,100384.56
2023-03-19T01:01:39.968Z,100390.34
2023-03-19T01:04:09.340Z,100382.56
2023-03-19T01:06:36.930Z,100388.41
2023-03-19T01:09:04.668Z,100390.03
2023-03-19T01:11:32.285Z,100387.22
2023-03-19T01:13:59.975Z,100380.97
2023-03-19T01:16:27.592Z,100382.41
2023-03-19T01:18:55.417Z,100384.00
2023-03-19T01:21:24.303Z,100384.53
2023-03-19T01:23:52.688Z,100387.56
2023-03-19T01:26:20.744Z,100395.19
2023-03-19T01:28:48.274Z,100398.69
2023-03-19T01:31:16.422Z,100399.03
2023-03-19T01:33:43.922Z,100392.28
2023-03-19T01:36:12.286Z,100391.34
2023-03-19T01:38:41.128Z,100395.47
2023-03-19T01:41:09.517Z,100377.13
2023-03-19T01:43:37.473Z,100384.59
2023-03-19T01:46:07.321Z,100379.28
2023-03-19T01:48:39.419Z,100378.59
2023-03-19T01:51:08.273Z,100380.53
2023-03-19T01:53:37.301Z,100374.97
2023-03-19T01:56:10.396Z,100387.50
2023-03-19T01:58:38.695Z,100379.63
2023-03-19T02:01:06.550Z,100380.25
2023-03-19T02:03:35.263Z,100386.84
2023-03-19T02:06:02.798Z,100379.16
2023-03-19T02:08:30.791Z,100377.34
2023-03-19T02:11:00.193Z,100379.09
2023-03-19T02:13:29.331Z,100389.06
2023-03-19T02:15:56.952Z,100381.66
2023-03-19T02:18:25.441Z,100384.47
2023-03-19T02:20:59.934Z,100385.50
2023-03-19T02:23:34.551Z,100389.16
2023-03-19T02:26:07.803Z,100381.94
2023-03-19T02:28:38.838Z,100384.31
2023-03-19T02:31:07.311Z,100391.53
2023-03-19T02:33:34.916Z,100385.94
2023-03-19T02:36:04.100Z,100398.50
2023-03-19T02:38:33.771Z,100389.78
2023-03-19T02:41:04.409Z,100386.84
2023-03-19T02:43:34.291Z,100389.16
2023-03-19T02:46:02.029Z,100377.78
2023-03-19T02:48:29.659Z,100386.06
2023-03-19T02:50:57.111Z,100382.91
2023-03-19T02:53:24.611Z,100391.53
2023-03-19T02:55:52.088Z,100391.06
2023-03-19T02:58:19.579Z,100390.09
2023-03-19T03:00:48.502Z,100398.97
2023-03-19T03:03:16.198Z,100395.78
2023-03-19T03:05:43.650Z,100389.81
2023-03-19T03:08:11.115Z,100388.53
2023-03-19T03:10:38.857Z,100385.56
2023-03-19T03:13:07.048Z,100389.97
2023-03-19T03:15:34.533Z,100393.69
2023-03-19T03:18:03.380Z,100395.06
2023-03-19T03:20:30.893Z,100399.50
2023-03-19T03:22:58.565Z,100395.84
2023-03-19T03:25:26.046Z,100390.31
2023-03-19T03:27:53.500Z,100394.00
2023-03-19T03:30:21.064Z,100393.34
2023-03-19T03:32:48.697Z,100405.97
2023-03-19T03:35:21.869Z,100406.69
2023-03-19T03:37:49.937Z,100410.41
2023-03-19T03:40:17.527Z,100410.22
2023-03-19T03:42:45.346Z,100405.56
2023-03-19T03:45:13.084Z,100415.59
2023-03-19T03:47:40.868Z,100410.47
2023-03-19T03:50:10.785Z,100406.31
2023-03-19T03:52:40.882Z,100417.66
2023-03-19T03:55:09.878Z,100414.66
2023-03-19T03:57:37.703Z,100419.84
2023-03-19T04:00:05.942Z,100414.13
2023-03-19T04:02:33.512Z,100418.78
2023-03-19T04:05:01.039Z,100415.34
2023-03-19T04:07:28.562Z,100410.31
2023-03-19T04:09:59.279Z,100420.94
2023-03-19T04:12:27.127Z,100422.72
2023-03-19T04:14:54.598Z,100429.53
2023-03-19T04:17:22.336Z,100435.22
2023-03-19T04:19:49.821Z,100436.59
2023-03-19T04:22:17.292Z,100437.50
2023-03-19T04:24:44.763Z,100445.78
2023-03-19T04:27:13.623Z,100447.50
2023-03-19T04:29:41.243Z,100451.66
2023-03-19T04:32:09.015Z,100449.84
2023-03-19T04:34:37.291Z,100446.00
2023-03-19T04:37:04.821Z,100443.19
2023-03-19T04:39:34.755Z,100438.78
2023-03-19T04:42:02.222Z,100456.94
2023-03-19T04:44:31.535Z,100446.03
2023-03-19T04:46:59.081Z,100449.72
2023-03-19T04:49:27.409Z,100440.25
2023-03-19T04:51:54.918Z,100444.72
2023-03-19T04:54:22.435Z,100457.44
2023-03-19T04:56:49.945Z,100461.53
2023-03-19T04:59:17.565Z,100462.25
2023-03-19T05:01:46.428Z,100470.19
2023-03-19T05:04:13.948Z,100474.19
2023-03-19T05:06:41.706Z,100466.75
2023-03-19T05:09:09.208Z,100461.25
2023-03-19T05:11:36.833Z,100466.53
2023-03-19T05:14:04.843Z,100468.34
2023-03-19T05:16:32.941Z,100461.59
2023-03-19T05:19:01.719Z,100465.22
2023-03-19T05:21:29.203Z,100463.59
2023-03-19T05:23:57.182Z,100463.84
2023-03-19T05:26:24.933Z,100468.50
2023-03-19T05:28:52.400Z,100468.84
2023-03-19T05:31:19.964Z,100468.69
2023-03-19T05:33:47.482Z,100477.97
2023-03-19T05:36:16.856Z,100481.13
2023-03-19T05:38:44.417Z,100498.34
2023-03-19T05:41:11.868Z,100496.00
2023-03-19T05:43:39.517Z,100504.44
2023-03-19T05:46:07.021Z,100502.00
2023-03-19T05:48:34.657Z,100497.34
2023-03-19T05:51:02.109Z,100494.97
2023-03-19T05:53:30.956Z,100504.44
2023-03-19T05:55:58.517Z,100500.31
2023-03-19T05:58:25.994Z,100502.97
2023-03-19T06:00:56.088Z,100513.75
2023-03-19T06:03:23.593Z,100510.22
2023-03-19T06:05:51.241Z,100518.50
2023-03-19T06:08:18.859Z,100523.63
2023-03-19T06:10:47.701Z,100522.16
2023-03-19T06:13:15.148Z,100534.75
2023-03-19T06:15:42.673Z,100531.28
2023-03-19T06:18:10.198Z,100533.59
2023-03-19T06:20:37.751Z,100534.75
2023-03-19T06:23:05.531Z,100526.75
2023-03-19T06:25:32.998Z,100536.03
2023-03-19T06:28:01.816Z,100529.91
2023-03-19T06:30:29.345Z,100531.53
2023-03-19T06:32:56.840Z,100540.34
2023-03-19T06:35:24.485Z,100548.44
2023-03-19T06:37:52.280Z,100547.28
2023-03-19T06:40:20.001Z,100549.91
2023-03-19T06:42:48.112Z,100547.59
2023-03-19T06:45:18.860Z,100541.78
2023-03-19T06:47:46.949Z,100545.38
2023-03-19T06:50:16.313Z,100543.72
2023-03-19T06:52:43.848Z,100552.66
2023-03-19T06:55:11.661Z,100531.84
2023-03-19T06:57:39.233Z,100546.41
2023-03-19T07:00:10.347Z,100548.22
2023-03-19T07:02:40.011Z,100543.03
2023-03-19T07:05:07.971Z,100545.97
2023-03-19T07:07:35.722Z,100556.75
2023-03-19T07:10:03.802Z,100558.19
2023-03-19T07:12:31.513Z,100559.78
2023-03-19T07:14:59.060Z,100565.03
2023-03-19T07:17:26.863Z,100566.09
2023-03-19T07:19:55.812Z,100561.84
2023-03-19T07:22:23.612Z,100553.41
2023-03-19T07:24:51.492Z,100560.97
2023-03-19T07:27:19.151Z,100560.34
2023-03-19T07:29:46.816Z,100576.41
2023-03-19T07:32:14.888Z,100575.84
2023-03-19T07:34:42.516Z,100573.56
2023-03-19T07:37:11.581Z,100582.38
2023-03-19T07:39:39.244Z,100579.97
2023-03-19T07:42:07.108Z,100580.53
2023-03-19T07:44:34.752Z,100577.69
2023-03-19T07:47:02.306Z,100582.56
2023-03-19T07:49:29.897Z,100580.16
2023-03-19T07:51:57.467Z,100574.47
2023-03-19T07:54:26.587Z,100569.50
2023-03-19T07:56:54.285Z,100573.47
2023-03-19T07:59:22.058Z,100577.59
2023-03-19T08:01:49.651Z,100575.66
2023-03-19T08:04:17.522Z,100587.50
2023-03-19T08:06:45.107Z,100586.19
2023-03-19T08:09:13.268Z,100586.22
2023-03-19T08:11:42.135Z,100589.50
2023-03-19T08:14:09.811Z,100586.63
2023-03-19T08:16:37.411Z,100586.16
2023-03-19T08:19:04.930Z,100593.13
2023-03-19T08:21:33.640Z,100595.91
2023-03-19T08:24:03.139Z,100598.09
2023-03-19T08:26:32.841Z,100583.53
2023-03-19T08:29:01.793Z,100602.19
2023-03-19T08:31:29.351Z,100599.47
2023-03-19T08:33:59.955Z,100593.81
2023-03-19T08:36:28.080Z,100595.72
2023-03-19T08:38:55.832Z,100590.66
2023-03-19T08:41:23.834Z,100591.81
2023-03-19T08:43:51.305Z,100596.81
2023-03-19T08:46:20.834Z,100597.00
2023-03-19T08:48:48.359Z,100606.31
2023-03-19T08:51:15.918Z,100594.97
2023-03-19T08:53:43.429Z,100603.88
2023-03-19T08:56:10.911Z,100602.66
2023-03-19T08:58:38.393Z,100599.13
2023-03-19T09:01:07.700Z,100592.22
2023-03-19T09:03:36.804Z,100591.94
2023-03-19T09:06:06.065Z,100597.75
2023-03-19T09:08:34.109Z,100596.97
2023-03-19T09:11:01.606Z,100593.97
2023-03-19T09:13:29.125Z,100593.03
2023-03-19T09:15:56.762Z,100596.41
2023-03-19T09:18:25.436Z,100597.50
2023-03-19T09:20:55.147Z,100590.53
2023-03-19T09:23:23.112Z,100589.97
2023-03-19T09:25:51.005Z,100591.34
2023-03-19T09:28:18.968Z,100592.00
2023-03-19T09:30:47.577Z,100593.00
2023-03-19T09:33:15.902Z,100598.56
2023-03-19T09:35:43.549Z,100597.75
2023-03-19T09:38:12.386Z,100598.34
2023-03-19T09:40:42.859Z,100604.75
2023-03-19T09:43:32.968Z,100604.34
2023-03-19T09:46:03.011Z,100596.94
2023-03-19T09:48:34.772Z,100596.13
2023-03-19T09:51:04.310Z,100593.66
2023-03-19T09:53:39.175Z,100600.88
2023-03-19T09:56:08.492Z,100603.34
2023-03-19T09:58:37.216Z,100608.47
2023-03-19T10:01:05.990Z,100611.78
2023-03-19T10:03:44.729Z,100605.38
2023-03-19T10:06:23.421Z,100609.69
2023-03-19T10:09:03.065Z,100608.81
2023-03-19T10:11:38.156Z,100602.53
2023-03-19T10:14:18.185Z,100604.97
2023-03-19T10:16:47.831Z,100605.38
2023-03-19T10:19:18.232Z,100604.38
2023-03-19T10:21:49.996Z,100606.34
2023-03-19T10:24:23.032Z,100605.47
2023-03-19T10:26:52.061Z,100607.06
2023-03-19T10:29:21.849Z,100604.44
2023-03-19T10:31:53.547Z,100599.50
2023-03-19T10:34:31.114Z,100605.84
2023-03-19T10:37:03.750Z,100600.00
2023-03-19T10:39:34.140Z,100598.63
2023-03-19T10:42:11.228Z,100599.53
2023-03-19T10:44:43.761Z,100605.00
2023-03-19T10:47:12.762Z,100601.41
2023-03-19T10:49:40.637Z,100605.81
2023-03-19T10:52:21.709Z,100604.03
2023-03-19T10:54:56.431Z,100604.78
2023-03-19T10:57:27.382Z,100602.47
2023-03-19T10:59:55.292Z,100605.38
2023-03-19T11:02:27.196Z,100611.00
2023-03-19T11:05:08.553Z,100615.19
2023-03-19T11:07:37.195Z,100614.69
2023-03-19T11:10:07.559Z,100611.84
2023-03-19T11:12:37.312Z,100605.66
2023-03-19T11:15:07.419Z,100612.03
2023-03-19T11:17:39.228Z,100602.31
2023-03-19T11:20:20.697Z,100603.75
2023-03-19T11:22:48.410Z,100601.22
2023-03-19T11:25:19.765Z,100601.56
2023-03-19T11:27:59.067Z,100600.91
2023-03-19T11:30:28.643Z,100602.72
2023-03-19T11:33:19.204Z,100602.00
2023-03-19T11:35:52.636Z,100604.78
2023-03-19T11:38:26.350Z,100601.47
2023-03-19T11:41:01.990Z,100601.13
2023-03-19T11:43:45.446Z,100596.50
2023-03-19T11:46:26.252Z,100597.59
2023-03-19T11:49:07.994Z,100594.47
2023-03-19T11:51:40.006Z,100589.88
2023-03-19T11:54:13.681Z,100594.75
2023-03-19T11:56:44.602Z,100589.50
2023-03-19T11:59:27.237Z,100587.84
2023-03-19T12:02:23.816Z,100591.75
2023-03-19T12:05:01.554Z,100586.75
2023-03-19T12:07:33.918Z,100591.34
2023-03-19T12:10:08.474Z,100592.88
2023-03-19T12:12:41.388Z,100592.25
2023-03-19T12:15:15.599Z,100600.19
2023-03-19T12:17:50.722Z,100594.84
2023-03-19T12:20:24.155Z,100593.31
2023-03-19T12:23:01.339Z,100591.81
2023-03-19T12:25:40.352Z,100591.16
2023-03-19T12:28:16.155Z,100589.84
2023-03-19T12:30:46.473Z,100593.41
2023-03-19T12:33:35.320Z,100590.38
2023-03-19T12:36:04.682Z,100590.06
2023-03-19T12:38:37.281Z,100589.50
2023-03-19T12:41:07.697Z,100587.50
2023-03-19T12:43:39.972Z,100585.91
2023-03-19T12:46:11.326Z,100590.13
2023-03-19T12:48:42.821Z,100591.97
2023-03-19T12:51:13.775Z,100590.13
2023-03-19T12:53:46.199Z,100588.50
2023-03-19T12:56:18.554Z,100590.84
2023-03-19T12:58:54.472Z,100590.84
2023-03-19T13:01:25.698Z,100597.75
2023-03-19T13:03:56.596Z,100597.38
2023-03-19T13:06:28.126Z,100600.97
2023-03-19T13:08:58.945Z,100614.34
2023-03-19T13:11:35.832Z,100618.91
2023-03-19T13:14:09.468Z,100619.28
2023-03-19T13:16:42.184Z,100623.41
2023-03-19T13:19:18.268Z,100630.13
2023-03-19T13:21:47.218Z,100626.19
2023-03-19T13:24:21.085Z,100621.66
2023-03-19T13:26:49.344Z,100622.91
2023-03-19T13:29:21.387Z,100616.72
2023-03-19T13:31:49.427Z,100623.91
2023-03-19T13:34:23.172Z,100614.66
2023-03-19T13:36:55.039Z,100618.38
2023-03-19T13:39:27.329Z,100622.91
2023-03-19T13:42:08.046Z,100626.81
2023-03-19T13:44:43.239Z,100614.66
2023-03-19T13:47:39.399Z,100617.94
2023-03-19T13:50:28.580Z,100618.56
2023-03-19T13:53:13.615Z,100619.78
2023-03-19T13:55:52.279Z,100627.28
2023-03-19T13:58:43.252Z,100624.47
2023-03-19T14:01:13.951Z,100626.91
2023-03-19T14:03:42.428Z,100625.03
2023-03-19T14:06:35.821Z,100615.00
2023-03-19T14:09:05.111Z,100623.22
2023-03-19T14:11:34.477Z,100622.88
2023-03-19T14:14:04.346Z,100627.72
2023-03-19T14:16:35.438Z,100624.09
2023-03-19T14:19:05.148Z,100620.03
2023-03-19T14:21:36.095Z,100618.66
2023-03-19T14:24:55.217Z,100617.28
2023-03-19T14:27:19.725Z,100617.81
2023-03-19T14:29:48.264Z,100600.75
2023-03-19T14:32:18.899Z,100596.50
2023-03-19T14:34:47.505Z,100603.13
2023-03-19T14:37:20.769Z,100601.25
2023-03-19T14:39:51.491Z,100599.31
2023-03-19T14:42:21.469Z,100600.88
2023-03-19T14:45:15.822Z,100595.41
2023-03-19T14:48:09.866Z,100589.25
2023-03-19T14:50:48.811Z,100581.66
2023-03-19T14:53:19.253Z,100584.75
2023-03-19T14:55:51.031Z,100587.88
2023-03-19T14:58:20.266Z,100589.97
2023-03-19T15:00:50.594Z,100592.22
2023-03-19T15:03:30.758Z,100581.09
2023-03-19T15:05:59.405Z,100579.25
2023-03-19T15:08:27.610Z,100579.06
2023-03-19T15:11:06.988Z,100577.38
2023-03-19T15:13:50.883Z,100580.47
2023-03-19T15:16:29.609Z,100571.44
2023-03-19T15:18:59.155Z,100576.13
2023-03-19T15:21:26.644Z,100584.81
2023-03-19T15:23:54.194Z,100581.72
2023-03-19T15:26:31.464Z,100582.13
2023-03-19T15:28:58.927Z,100577.97
2023-03-19T15:31:51.004Z,100588.72
2023-03-19T15:34:24.349Z,100578.78
2023-03-19T15:36:54.466Z,100587.03
2023-03-19T15:39:23.362Z,100582.06
2023-03-19T15:41:51.673Z,100581.88
2023-03-19T15:44:23.034Z,100584.16
2023-03-19T15:46:51.058Z,100587.03
2023-03-19T15:49:24.204Z,100582.09
2023-03-19T15:51:54.106Z,100591.22
2023-03-19T15:54:22.007Z,100586.22
2023-03-19T15:56:50.462Z,100580.66
2023-03-19T15:59:19.499Z,100590.56
2023-03-19T16:01:47.234Z,100593.47
2023-03-19T16:04:19.694Z,100587.50
2023-03-19T16:06:49.638Z,100589.97
2023-03-19T16:09:24.633Z,100595.09
2023-03-19T16:11:52.611Z,100582.97
2023-03-19T16:14:25.594Z,100585.63
2023-03-19T16:16:54.338Z,100593.44
2023-03-19T16:19:31.015Z,100587.03
2023-03-19T16:22:00.190Z,100586.44
2023-03-19T16:24:30.931Z,100582.34
2023-03-19T16:26:59.127Z,100582.53
2023-03-19T16:29:27.600Z,100595.72
2023-03-19T16:31:59.586Z,100595.72
2023-03-19T16:34:32.460Z,100602.72
2023-03-19T16:37:03.149Z,100605.59
2023-03-19T16:39:35.068Z,100604.38
2023-03-19T16:42:17.696Z,100601.69
2023-03-19T16:44:48.170Z,100607.22
2023-03-19T16:47:19.209Z,100603.28
2023-03-19T16:49:47.334Z,100607.00
2023-03-19T16:52:18.394Z,100611.31
2023-03-19T16:54:46.398Z,100613.19
2023-03-19T16:57:15.304Z,100621.44
2023-03-19T16:59:43.211Z,100620.63
2023-03-19T17:02:12.139Z,100625.16
2023-03-19T17:04:39.904Z,100627.63
2023-03-19T17:07:07.815Z,100626.59
2023-03-19T17:09:36.791Z,100636.28
2023-03-19T17:12:06.527Z,100652.00
2023-03-19T17:14:34.540Z,100653.78
2023-03-19T17:17:02.676Z,100651.56
2023-03-19T17:19:34.585Z,100659.44
2023-03-19T17:22:02.658Z,100651.38
2023-03-19T17:24:31.814Z,100654.44
2023-03-19T17:27:02.222Z,100660.03
2023-03-19T17:29:30.428Z,100658.53
2023-03-19T17:32:01.440Z,100663.41
2023-03-19T17:34:31.780Z,100656.38
2023-03-19T17:37:01.134Z,100666.59
2023-03-19T17:39:31.308Z,100668.97
2023-03-19T17:41:59.049Z,100668.19
2023-03-19T17:44:28.050Z,100666.88
2023-03-19T17:46:55.848Z,100669.69
2023-03-19T17:49:26.101Z,100673.09
2023-03-19T17:51:53.604Z,100681.41
2023-03-19T17:54:21.281Z,100681.41
2023-03-19T17:56:49.162Z,100682.59
2023-03-19T17:59:16.620Z,100686.50
2023-03-19T18:01:47.121Z,100691.16
2023-03-19T18:04:16.480Z,100687.84
2023-03-19T18:06:46.306Z,100698.09
2023-03-19T18:09:18.895Z,100694.50
2023-03-19T18:11:46.662Z,100706.59
2023-03-19T18:14:14.174Z,100699.22
2023-03-19T18:16:41.910Z,100707.81
2023-03-19T18:19:19.591Z,100706.13
2023-03-19T18:21:47.137Z,100702.97
2023-03-19T18:24:14.625Z,100705.38
2023-03-19T18:26:42.131Z,100710.97
2023-03-19T18:29:09.988Z,100706.84
2023-03-19T18:31:37.731Z,100715.88
2023-03-19T18:34:07.637Z,100718.53
2023-03-19T18:36:36.662Z,100720.16
2023-03-19T18:39:04.656Z,100715.69
2023-03-19T18:41:32.476Z,100711.09
2023-03-19T18:43:59.934Z,100713.94
2023-03-19T18:46:29.960Z,100717.44
2023-03-19T18:48:59.529Z,100712.22
2023-03-19T18:51:28.581Z,100719.66
2023-03-19T18:53:57.477Z,100723.88
2023-03-19T18:56:27.312Z,100724.88
2023-03-19T18:58:55.228Z,100719.72
2023-03-19T19:01:23.481Z,100722.69
2023-03-19T19:03:51.406Z,100718.09
2023-03-19T19:06:26.334Z,100717.81
2023-03-19T19:08:57.609Z,100721.59
2023-03-19T19:11:25.137Z,100725.44
2023-03-19T19:13:56.428Z,100725.50
2023-03-19T19:16:28.182Z,100738.75
2023-03-19T19:18:55.696Z,100738.47
2023-03-19T19:21:23.193Z,100738.94
2023-03-19T19:23:50.758Z,100739.97
2023-03-19T19:26:23.348Z,100746.63
2023-03-19T19:28:52.011Z,100749.84
2023-03-19T19:31:24.676Z,100754.25
2023-03-19T19:33:52.591Z,100761.31
2023-03-19T19:36:20.966Z,100762.69
2023-03-19T19:38:49.179Z,100772.41
2023-03-19T19:41:17.972Z,100782.06
2023-03-19T19:43:47.554Z,100780.50
2023-03-19T19:46:16.506Z,100782.50
2023-03-19T19:48:44.049Z,100789.38
2023-03-19T19:51:19.253Z,100791.72
2023-03-19T19:53:47.069Z,100796.25
2023-03-19T19:56:16.657Z,100795.88
2023-03-19T19:58:44.766Z,100793.59
2023-03-19T20:01:17.625Z,100798.59
2023-03-19T20:03:46.170Z,100808.19
2023-03-19T20:06:14.383Z,100804.22
2023-03-19T20:08:42.332Z,100804.41
2023-03-19T20:11:15.304Z,100803.88
2023-03-19T20:13:44.253Z,100810.75
2023-03-19T20:16:12.663Z,100805.41
2023-03-19T20:18:43.522Z,100811.09
2023-03-19T20:21:12.339Z,100810.38
2023-03-19T20:23:41.273Z,100817.94
2023-03-19T20:26:12.410Z,100805.13
2023-03-19T20:28:39.932Z,100808.78
2023-03-19T20:31:07.564Z,100813.94
2023-03-19T20:33:37.253Z,100815.72
2023-03-19T20:36:07.229Z,100824.44
2023-03-19T20:38:36.607Z,100823.63
2023-03-19T20:41:04.498Z,100828.06
2023-03-19T20:43:33.511Z,100823.19
2023-03-19T20:46:04.150Z,100826.69
2023-03-19T20:48:32.818Z,100836.06
2023-03-19T20:51:01.873Z,100842.34
2023-03-19T20:53:31.033Z,100840.69
2023-03-19T20:55:59.970Z,100843.25
2023-03-19T20:58:29.600Z,100850.88
2023-03-19T21:00:57.772Z,100858.63
2023-03-19T21:03:27.049Z,100868.41
2023-03-19T21:05:57.991Z,100864.28
2023-03-19T21:08:33.285Z,100868.59
2023-03-19T21:11:01.637Z,100870.28
2023-03-19T21:13:29.384Z,100872.88
2023-03-19T21:15:57.037Z,100879.09
2023-03-19T21:18:24.637Z,100878.19
2023-03-19T21:20:54.853Z,100887.13
2023-03-19T21:23:26.797Z,100882.16
2023-03-19T21:25:55.787Z,100879.16
2023-03-19T21:28:25.313Z,100871.81
2023-03-19T21:30:53.237Z,100876.13
2023-03-19T21:33:24.349Z,100872.94
2023-03-19T21:35:52.531Z,100880.94
2023-03-19T21:38:20.300Z,100885.50
2023-03-19T21:40:47.856Z,100886.47
2023-03-19T21:43:20.796Z,100880.81
2023-03-19T21:45:49.458Z,100886.63
2023-03-19T21:48:24.341Z,100885.66
2023-03-19T21:50:52.426Z,100889.97
2023-03-19T21:53:20.350Z,100875.50
2023-03-19T21:55:48.085Z,100884.13
2023-03-19T21:58:19.144Z,100884.47
2023-03-19T22:00:47.167Z,100887.13
2023-03-19T22:03:18.255Z,100890.09
2023-03-19T22:05:46.576Z,100889.44
2023-03-19T22:08:16.075Z,100890.44
2023-03-19T22:10:44.534Z,100891.09
2023-03-19T22:13:21.495Z,100887.94
2023-03-19T22:15:49.639Z,100892.41
2023-03-19T22:18:17.520Z,100887.44
2023-03-19T22:20:45.101Z,100901.69
2023-03-19T22:23:13.577Z,100905.34
2023-03-19T22:25:43.027Z,100897.72
2023-03-19T22:28:16.807Z,100893.38
2023-03-19T22:30:46.166Z,100893.69
2023-03-19T22:33:15.941Z,100891.53
2023-03-19T22:35:43.786Z,100881.38
2023-03-19T22:38:11.698Z,100888.66
2023-03-19T22:40:40.016Z,100886.22
2023-03-19T22:43:17.264Z,100885.38
2023-03-19T22:45:46.244Z,100881.06
2023-03-19T22:48:15.441Z,100881.09
2023-03-19T22:50:43.787Z,100884.44
2023-03-19T22:53:22.220Z,100881.31
2023-03-19T22:55:49.858Z,100886.63
2023-03-19T22:58:17.816Z,100875.44
2023-03-19T23:00:47.090Z,100881.78
2023-03-19T23:03:18.703Z,100885.22
2023-03-19T23:05:47.093Z,100880.38
2023-03-19T23:08:17.368Z,100880.69
2023-03-19T23:10:44.962Z,100875.41
2023-03-19T23:13:13.756Z,100878.06
2023-03-19T23:15:41.833Z,100867.91
2023-03-19T23:18:17.282Z,100865.41
2023-03-19T23:20:44.877Z,100865.91
2023-03-19T23:23:13.543Z,100868.56
2023-03-19T23:25:41.411Z,100873.09
2023-03-19T23:28:17.147Z,100875.38
2023-03-19T23:30:46.211Z,100881.38
2023-03-19T23:33:15.722Z,100876.03
2023-03-19T23:35:43.716Z,100889.84
2023-03-19T23:38:12.583Z,100881.53
2023-03-19T23:40:43.882Z,100881.88
2023-03-19T23:43:18.250Z,100881.72
2023-03-19T23:45:46.673Z,100882.28
2023-03-19T23:48:17.098Z,100880.81
2023-03-19T23:50:48.446Z,100882.84
2023-03-19T23:53:19.583Z,100886.16
2023-03-19T23:55:48.257Z,100896.59
2023-03-19T23:58:16.414Z,100897.81
